This is the latest recevied weather packets stored in our database for station/object KO4DYK. If no packets are shown the sender has not sent any weather packets the latest 10 day(s).
| Time | Temp. | Humidity | Pressure | Rain* | Wind** | Luminosity | Snow |
|---|---|---|---|---|---|---|---|
| 1777997388 | 15° C | 99% | 1015.8 hPa | 6.6 mm | - | 19 W/m² | - |
| 1777997086 | 15° C | 99% | 1015.7 hPa | 4.83 mm | - | 19 W/m² | - |
| 1777996782 | 15° C | 99% | 1015.4 hPa | 6.1 mm | - | 21 W/m² | - |
| 1777996479 | 15° C | 99% | 1015.2 hPa | 7.11 mm | - | 26 W/m² | - |
| 1777996175 | 15° C | 99% | 1015.1 hPa | 6.1 mm | - | 28 W/m² | - |
| 1777995872 | 15° C | 99% | 1015.5 hPa | 4.83 mm | - | 26 W/m² | - |
| 1777995568 | 15° C | 99% | 1015.6 hPa | 4.83 mm | - | 24 W/m² | - |
| 1777995265 | 15° C | 99% | 1015.4 hPa | 4.83 mm | - | 26 W/m² | - |
| 1777994962 | 15° C | 99% | 1015 hPa | 6.1 mm | - | 33 W/m² | - |
| 1777994660 | 15° C | 99% | 1014.9 hPa | 6.1 mm | - | 35 W/m² | - |
| 1777994359 | 15° C | 99% | 1014.8 hPa | 1.78 mm | - | 34 W/m² | - |
| 1777994056 | 15° C | 99% | 1015.5 hPa | 1.27 mm | - | 30 W/m² | - |
| 1777993748 | 15° C | 99% | 1015.3 hPa | 3.05 mm | - | 41 W/m² | - |
| 1777993445 | 15° C | 98% | 1015.3 hPa | 4.83 mm | - | 37 W/m² | - |
| 1777993144 | 15° C | 97% | 1015.2 hPa | 6.1 mm | - | 39 W/m² | - |
| 1777992843 | 15.56° C | 96% | 1015 hPa | 4.83 mm | - | 42 W/m² | - |
| 1777992540 | 15.56° C | 95% | 1015.7 hPa | 3.05 mm | - | 28 W/m² | - |
| 1777992239 | 15.56° C | 93% | 1015.6 hPa | 4.32 mm | - | 23 W/m² | - |
| 1777991935 | 16.11° C | 92% | 1015.9 hPa | 3.05 mm | - | 20 W/m² | - |
| 1777991633 | 16.11° C | 90% | 1015.8 hPa | 1.78 mm | - | 24 W/m² | - |
| 1777991330 | 16.11° C | 89% | 1015.7 hPa | 0 mm | - | 23 W/m² | - |
| 1777991027 | 16.67° C | 88% | 1015.9 hPa | 0 mm | - | 20 W/m² | - |
| 1777990724 | 16.67° C | 88% | 1015.8 hPa | 0 mm | - | 20 W/m² | - |
| 1777990422 | 16.67° C | 87% | 1015.8 hPa | 0 mm | - | 31 W/m² | - |
| 1777989814 | 17.22° C | 85% | 1015.4 hPa | 0 mm | - | 31 W/m² | - |
* Rain latest hour (hover to see other rain measurements)
** Current wind speed in m/s (hover to see current wind gust speed)